sensor_id;sensor_type;location;lat;lon;timestamp;pressure;altitude;pressure_sealevel;temperature;humidity
11038;BME280;5572;49.540;11.932;2023-02-11T00:00:38;97745.59;;;-4.57;100.00
11038;BME280;5572;49.540;11.932;2023-02-11T00:03:06;97749.25;;;-4.82;100.00
11038;BME280;5572;49.540;11.932;2023-02-11T00:05:33;97736.22;;;-4.83;100.00
11038;BME280;5572;49.540;11.932;2023-02-11T07:55:24;97878.63;;;0.35;100.00
11038;BME280;5572;49.540;11.932;2023-02-11T08:01:23;97909.25;;;0.85;100.00
11038;BME280;5572;49.540;11.932;2023-02-11T08:03:53;97906.38;;;0.87;100.00
11038;BME280;5572;49.540;11.932;2023-02-11T08:06:22;97900.22;;;0.53;100.00
11038;BME280;5572;49.540;11.932;2023-02-11T08:08:49;97898.56;;;0.52;100.00
11038;BME280;5572;49.540;11.932;2023-02-11T08:11:19;97918.19;;;0.51;100.00
11038;BME280;5572;49.540;11.932;2023-02-11T08:13:47;97925.69;;;0.68;100.00
11038;BME280;5572;49.540;11.932;2023-02-11T08:16:17;97920.31;;;0.62;100.00
11038;BME280;5572;49.540;11.932;2023-02-11T08:18:44;97916.75;;;0.76;100.00
11038;BME280;5572;49.540;11.932;2023-02-11T08:21:11;97914.72;;;0.78;100.00
11038;BME280;5572;49.540;11.932;2023-02-11T08:23:39;97915.63;;;0.91;100.00
11038;BME280;5572;49.540;11.932;2023-02-11T08:26:09;97905.28;;;1.09;100.00
11038;BME280;5572;49.540;11.932;2023-02-11T08:28:38;97908.78;;;1.16;100.00
11038;BME280;5572;49.540;11.932;2023-02-11T08:31:05;97907.94;;;1.09;100.00
11038;BME280;5572;49.540;11.932;2023-02-11T08:33:32;97901.50;;;1.37;100.00
11038;BME280;5572;49.540;11.932;2023-02-11T08:35:59;97903.13;;;1.32;100.00
11038;BME280;5572;49.540;11.932;2023-02-11T08:38:26;97902.53;;;1.36;100.00
11038;BME280;5572;49.540;11.932;2023-02-11T08:40:53;97903.22;;;1.11;100.00
11038;BME280;5572;49.540;11.932;2023-02-11T08:43:19;97898.13;;;1.09;100.00
11038;BME280;5572;49.540;11.932;2023-02-11T08:45:48;97896.78;;;1.33;100.00
11038;BME280;5572;49.540;11.932;2023-02-11T08:48:15;97914.50;;;1.60;100.00
11038;BME280;5572;49.540;11.932;2023-02-11T08:50:41;97898.31;;;1.67;100.00
11038;BME280;5572;49.540;11.932;2023-02-11T08:53:08;97907.59;;;1.91;100.00
11038;BME280;5572;49.540;11.932;2023-02-11T08:55:35;97922.50;;;1.66;100.00
11038;BME280;5572;49.540;11.932;2023-02-11T08:58:01;97927.41;;;1.63;100.00
11038;BME280;5572;49.540;11.932;2023-02-11T09:00:28;97932.34;;;1.72;100.00
11038;BME280;5572;49.540;11.932;2023-02-11T10:35:58;97925.34;;;4.14;100.00
11038;BME280;5572;49.540;11.932;2023-02-11T10:38:25;97917.16;;;3.78;100.00
11038;BME280;5572;49.540;11.932;2023-02-11T10:40:52;97919.94;;;3.89;100.00
11038;BME280;5572;49.540;11.932;2023-02-11T10:43:22;97924.47;;;3.45;100.00
11038;BME280;5572;49.540;11.932;2023-02-11T14:41:50;98179.72;;;5.43;100.00
11038;BME280;5572;49.540;11.932;2023-02-11T14:44:48;98184.63;;;5.46;100.00
11038;BME280;5572;49.540;11.932;2023-02-11T16:22:57;98008.63;;;4.30;100.00
11038;BME280;5572;49.540;11.932;2023-02-11T16:25:24;98008.47;;;4.19;100.00
11038;BME280;5572;49.540;11.932;2023-02-11T16:27:51;97996.31;;;4.22;100.00
11038;BME280;5572;49.540;11.932;2023-02-11T16:30:25;97997.16;;;4.17;100.00
11038;BME280;5572;49.540;11.932;2023-02-11T16:32:53;97985.25;;;4.13;100.00
11038;BME280;5572;49.540;11.932;2023-02-11T16:35:19;97970.66;;;4.09;100.00
11038;BME280;5572;49.540;11.932;2023-02-11T16:37:46;97967.34;;;4.13;100.00
11038;BME280;5572;49.540;11.932;2023-02-11T16:40:14;97973.13;;;4.10;100.00
11038;BME280;5572;49.540;11.932;2023-02-11T16:42:40;97956.84;;;4.12;100.00
11038;BME280;5572;49.540;11.932;2023-02-11T16:53:09;97928.53;;;4.04;100.00
11038;BME280;5572;49.540;11.932;2023-02-11T17:29:42;97816.91;;;3.87;100.00
11038;BME280;5572;49.540;11.932;2023-02-11T17:45:28;97798.81;;;3.89;100.00
11038;BME280;5572;49.540;11.932;2023-02-11T17:47:55;97786.47;;;3.88;100.00
11038;BME280;5572;49.540;11.932;2023-02-11T17:50:22;97774.50;;;3.90;100.00
11038;BME280;5572;49.540;11.932;2023-02-11T17:52:49;97774.94;;;3.87;100.00
11038;BME280;5572;49.540;11.932;2023-02-11T17:55:16;97768.31;;;3.90;100.00
11038;BME280;5572;49.540;11.932;2023-02-11T17:57:43;97757.81;;;3.95;100.00
11038;BME280;5572;49.540;11.932;2023-02-11T18:00:11;97759.69;;;3.94;100.00
11038;BME280;5572;49.540;11.932;2023-02-11T18:02:41;97747.25;;;4.00;100.00
11038;BME280;5572;49.540;11.932;2023-02-11T18:05:09;97747.34;;;3.93;100.00
11038;BME280;5572;49.540;11.932;2023-02-11T18:50:44;97643.94;;;3.63;100.00
11038;BME280;5572;49.540;11.932;2023-02-11T19:03:25;97624.56;;;3.67;100.00
11038;BME280;5572;49.540;11.932;2023-02-11T19:22:47;97586.09;;;3.68;100.00
11038;BME280;5572;49.540;11.932;2023-02-11T19:31:58;97568.81;;;3.71;100.00
11038;BME280;5572;49.540;11.932;2023-02-11T19:34:24;97559.16;;;3.70;100.00
11038;BME280;5572;49.540;11.932;2023-02-11T19:40:15;97569.63;;;3.53;100.00
11038;BME280;5572;49.540;11.932;2023-02-11T19:42:42;97560.03;;;3.46;100.00
11038;BME280;5572;49.540;11.932;2023-02-11T19:45:09;97542.13;;;3.46;100.00
11038;BME280;5572;49.540;11.932;2023-02-11T19:47:36;97536.56;;;3.48;100.00
11038;BME280;5572;49.540;11.932;2023-02-11T19:50:03;97541.09;;;3.47;100.00
11038;BME280;5572;49.540;11.932;2023-02-11T19:52:30;97632.50;;;3.56;100.00
11038;BME280;5572;49.540;11.932;2023-02-11T19:54:57;97636.53;;;3.65;100.00
11038;BME280;5572;49.540;11.932;2023-02-11T20:05:23;97612.47;;;3.65;100.00
11038;BME280;5572;49.540;11.932;2023-02-11T20:07:50;97613.78;;;3.56;100.00
11038;BME280;5572;49.540;11.932;2023-02-11T20:10:17;97602.50;;;3.54;100.00
11038;BME280;5572;49.540;11.932;2023-02-11T20:12:44;97610.38;;;3.49;100.00
11038;BME280;5572;49.540;11.932;2023-02-11T20:15:10;97608.59;;;3.61;100.00
11038;BME280;5572;49.540;11.932;2023-02-11T20:20:58;97613.28;;;3.65;100.00
11038;BME280;5572;49.540;11.932;2023-02-11T20:23:27;97608.38;;;3.62;100.00
11038;BME280;5572;49.540;11.932;2023-02-11T20:25:55;97605.66;;;3.69;100.00
11038;BME280;5572;49.540;11.932;2023-02-11T20:28:22;97606.22;;;3.71;100.00
11038;BME280;5572;49.540;11.932;2023-02-11T20:30:56;97617.94;;;3.70;100.00
11038;BME280;5572;49.540;11.932;2023-02-11T20:33:25;97623.97;;;3.65;100.00
11038;BME280;5572;49.540;11.932;2023-02-11T20:35:55;97614.47;;;3.69;100.00
11038;BME280;5572;49.540;11.932;2023-02-11T20:38:25;97602.75;;;3.70;100.00
11038;BME280;5572;49.540;11.932;2023-02-11T20:40:53;97605.84;;;3.67;100.00
11038;BME280;5572;49.540;11.932;2023-02-11T20:43:21;97619.81;;;3.69;100.00
11038;BME280;5572;49.540;11.932;2023-02-11T20:45:48;97621.28;;;3.65;100.00
11038;BME280;5572;49.540;11.932;2023-02-11T20:48:20;97622.56;;;3.63;100.00
11038;BME280;5572;49.540;11.932;2023-02-11T20:50:48;97609.63;;;3.60;100.00
11038;BME280;5572;49.540;11.932;2023-02-11T20:53:16;97604.50;;;3.58;100.00
11038;BME280;5572;49.540;11.932;2023-02-11T20:55:46;97602.56;;;3.65;100.00
11038;BME280;5572;49.540;11.932;2023-02-11T20:58:14;97602.66;;;3.59;100.00
11038;BME280;5572;49.540;11.932;2023-02-11T21:00:41;97607.56;;;3.62;100.00
11038;BME280;5572;49.540;11.932;2023-02-11T21:03:08;97608.97;;;3.64;100.00
11038;BME280;5572;49.540;11.932;2023-02-11T21:05:36;97615.50;;;3.68;100.00
11038;BME280;5572;49.540;11.932;2023-02-11T21:08:04;97609.94;;;3.70;100.00
11038;BME280;5572;49.540;11.932;2023-02-11T21:10:31;97606.09;;;3.66;100.00
11038;BME280;5572;49.540;11.932;2023-02-11T21:13:00;97595.75;;;3.69;100.00
11038;BME280;5572;49.540;11.932;2023-02-11T21:15:29;97617.22;;;3.63;100.00
11038;BME280;5572;49.540;11.932;2023-02-11T21:17:57;97619.56;;;3.53;100.00
11038;BME280;5572;49.540;11.932;2023-02-11T21:20:24;97621.69;;;3.44;100.00
11038;BME280;5572;49.540;11.932;2023-02-11T21:22:52;97618.31;;;3.55;100.00
11038;BME280;5572;49.540;11.932;2023-02-11T21:25:20;97620.25;;;3.66;100.00
11038;BME280;5572;49.540;11.932;2023-02-11T21:27:48;97629.13;;;3.18;100.00
11038;BME280;5572;49.540;11.932;2023-02-11T21:30:18;97645.00;;;3.07;100.00
11038;BME280;5572;49.540;11.932;2023-02-11T21:32:45;97644.69;;;3.21;100.00
11038;BME280;5572;49.540;11.932;2023-02-11T21:35:13;97619.75;;;3.58;100.00
11038;BME280;5572;49.540;11.932;2023-02-11T21:37:40;97640.19;;;3.22;100.00
11038;BME280;5572;49.540;11.932;2023-02-11T21:40:09;97650.66;;;2.92;100.00
11038;BME280;5572;49.540;11.932;2023-02-11T21:42:39;97648.28;;;3.09;100.00
11038;BME280;5572;49.540;11.932;2023-02-11T21:45:08;97647.84;;;3.12;100.00
11038;BME280;5572;49.540;11.932;2023-02-11T21:47:36;97659.38;;;3.06;100.00
11038;BME280;5572;49.540;11.932;2023-02-11T21:50:05;97668.44;;;3.05;100.00
11038;BME280;5572;49.540;11.932;2023-02-11T21:52:32;97659.88;;;2.96;100.00
11038;BME280;5572;49.540;11.932;2023-02-11T21:55:00;97671.41;;;2.90;100.00
11038;BME280;5572;49.540;11.932;2023-02-11T21:57:28;97660.22;;;3.06;100.00
11038;BME280;5572;49.540;11.932;2023-02-11T21:59:55;97662.75;;;2.95;100.00
11038;BME280;5572;49.540;11.932;2023-02-11T22:02:23;97662.94;;;3.00;100.00
11038;BME280;5572;49.540;11.932;2023-02-11T22:04:52;97642.91;;;3.39;100.00
11038;BME280;5572;49.540;11.932;2023-02-11T22:07:20;97627.91;;;3.63;100.00
11038;BME280;5572;49.540;11.932;2023-02-11T22:09:48;97634.66;;;3.65;100.00
11038;BME280;5572;49.540;11.932;2023-02-11T22:12:17;97633.78;;;3.71;100.00
11038;BME280;5572;49.540;11.932;2023-02-11T22:14:45;97628.88;;;3.68;100.00
11038;BME280;5572;49.540;11.932;2023-02-11T22:17:13;97624.44;;;3.80;100.00
11038;BME280;5572;49.540;11.932;2023-02-11T22:19:41;97630.72;;;3.92;100.00
11038;BME280;5572;49.540;11.932;2023-02-11T22:22:10;97652.59;;;4.01;100.00
11038;BME280;5572;49.540;11.932;2023-02-11T22:24:38;97651.81;;;4.00;100.00
11038;BME280;5572;49.540;11.932;2023-02-11T22:27:06;97660.19;;;4.04;100.00
11038;BME280;5572;49.540;11.932;2023-02-11T22:29:37;97663.47;;;3.88;100.00
11038;BME280;5572;49.540;11.932;2023-02-11T22:32:08;97659.28;;;3.92;100.00
11038;BME280;5572;49.540;11.932;2023-02-11T22:34:39;97657.28;;;3.87;100.00
11038;BME280;5572;49.540;11.932;2023-02-11T22:37:08;97654.84;;;3.86;100.00
11038;BME280;5572;49.540;11.932;2023-02-11T22:39:39;97660.00;;;3.81;100.00
11038;BME280;5572;49.540;11.932;2023-02-11T22:42:08;97667.22;;;3.80;100.00
11038;BME280;5572;49.540;11.932;2023-02-11T22:50:28;97682.13;;;3.70;100.00
11038;BME280;5572;49.540;11.932;2023-02-11T22:52:57;97701.56;;;3.59;100.00
